Magnus Heinason — OW2252 — position and weather

sailwx.info

Track history (hours):
 
Tides and Currents Weather Stations Pressure Air Temp Water Temp Dewpoint Dewpoint Depression Visibility Wind Speed Wind Dir Waves Ship Positions

Oceanographic research ship Magnus Heinason (Faroe Islands)

Detailed information on ship capabilities available from ARCUS's ALIAS (Arctic Logistics Information and Support) project.

Last reported at 2017-Oct-17 04:16 UTC. Time now 2017-Oct-17 06:03 UTC.
Position N 62°13' W 007°51'.

Length 44 m; draft 4 m.

Type: . MMSI: 231041000.

Date/timePositionNaut miles runAvg speedWind from/ knotsBaromVisibWave heightAir tempDewpointWater temp
2017-Oct-17 04:16N 62°13' W 007°51'2 8.7
2017-Oct-17 04:00N 62°14' W 007°48'7 9.4
2017-Oct-17 03:14N 62°19' W 007°36'2 8.6
2017-Oct-17 03:00N 62°20' W 007°33'1 1.0
2017-Oct-17 01:55N 62°21' W 007°31'1 1.9
2017-Oct-17 01:30N 62°20' W 007°32'1 2.0
2017-Oct-17 01:00N 62°19' W 007°33'0 0.9
2017-Oct-17 00:30N 62°19' W 007°33'1 2.0
2017-Oct-16 23:56N 62°18' W 007°35'1 0.5
2017-Oct-16 22:41N 62°19' W 007°34'1 3.5
2017-Oct-16 22:30N 62°19' W 007°33'2 0.6
2017-Oct-16 18:49N 62°21' W 007°30'0 0.1
2017-Oct-16 15:34N 62°21' W 007°30'0 1.3
2017-Oct-16 15:23N 62°21' W 007°30'0 0.1
2017-Oct-16 12:03N 62°21' W 007°30'0 2.7
2017-Oct-16 12:00N 62°21' W 007°31'1 2.7
2017-Oct-16 11:31N 62°20' W 007°32'1 2.8
2017-Oct-16 11:00N 62°19' W 007°34'5 6.7
2017-Oct-16 10:20N 62°15' W 007°40'3 8.4
2017-Oct-16 10:00N 62°13' W 007°44'5 8.7
2017-Oct-16 09:27N 62°09' W 007°50'14 1.3
2017-Oct-15 22:47N 61°56' W 007°57'6 8.5
2017-Oct-15 22:07N 61°55' W 007°45'1 8.4
2017-Oct-15 22:00N 61°55' W 007°43'4 8.2
2017-Oct-15 21:31N 61°55' W 007°34'4 8.1
2017-Oct-15 21:01N 61°54' W 007°26'3 6.9
2017-Oct-15 20:30N 61°54' W 007°18'1 2.2
2017-Oct-15 20:00N 61°53' W 007°19'2 3.1
2017-Oct-15 19:30N 61°51' W 007°18'2 4.5
2017-Oct-15 19:00N 61°49' W 007°16'4 7.8
2017-Oct-15 18:29N 61°46' W 007°10'4 7.3
2017-Oct-15 17:58N 61°44' W 007°04'1 1.6
2017-Oct-15 17:25N 61°43' W 007°04'1 2.3
2017-Oct-15 17:00N 61°44' W 007°03'0 0.7
2017-Oct-15 16:22N 61°44' W 007°04'1 2.3
2017-Oct-15 16:00N 61°44' W 007°05'0 0.0
2017-Oct-15 15:22N 61°44' W 007°05'3 4.2
2017-Oct-15 14:41N 61°46' W 007°08'2 2.8
2017-Oct-15 14:00N 61°48' W 007°10'1 1.8
2017-Oct-15 13:14N 61°46' W 007°09'0 0.4
2017-Oct-15 12:59N 61°46' W 007°09'0 0.6
2017-Oct-15 12:30N 61°46' W 007°08'3 3.3
2017-Oct-15 11:32N 61°44' W 007°05'0 3.6
2017-Oct-15 11:30N 61°44' W 007°05'3 1.8
2017-Oct-15 10:01N 61°46' W 007°08'0 4.0
2017-Oct-15 09:56N 61°46' W 007°08'2 2.7
2017-Oct-15 09:21N 61°45' W 007°07'2 3.2
2017-Oct-15 08:40N 61°43' W 007°05'0 0.7
2017-Oct-15 08:29N 61°43' W 007°05'2 3.0
2017-Oct-15 07:40N 61°45' W 007°07'0 0.7
2017-Oct-15 07:22N 61°45' W 007°07'1 2.4
2017-Oct-15 06:59N 61°44' W 007°06'1 2.9
2017-Oct-15 06:29N 61°43' W 007°04'4 5.5
2017-Oct-15 05:47N 61°43' W 006°56'3 6.1
2017-Oct-15 05:20N 61°43' W 006°50'2 6.2
2017-Oct-15 05:01N 61°43' W 006°46'3 5.4
2017-Oct-15 04:25N 61°44' W 006°39'1 3.4
2017-Oct-15 04:00N 61°43' W 006°36'1 2.9
2017-Oct-15 03:30N 61°43' W 006°34'1 2.2
2017-Oct-15 03:00N 61°42' W 006°31'1 2.8
2017-Oct-15 02:31N 61°44' W 006°31'1 3.0
2017-Oct-15 02:00N 61°45' W 006°31'  
Track history (hours):
 
Tides and Currents Weather Stations Pressure Air Temp Water Temp Dewpoint Dewpoint Depression Visibility Wind Speed Wind Dir Waves Ship Positions

Oceanographic research ship Magnus Heinason (Faroe Islands)

Detailed information on ship capabilities available from ARCUS's ALIAS (Arctic Logistics Information and Support) project.

Last reported at 2017-Oct-17 04:16 UTC. Time now 2017-Oct-17 06:03 UTC.
Position N 62°13' W 007°51'.

Length 44 m; draft 4 m.

Type: . MMSI: 231041000.

Date/timePositionNaut miles runAvg speedWind from/ knotsBaromVisibWave heightAir tempDewpointWater temp
2017-Oct-17 04:16N 62°13' W 007°51'2 8.7
2017-Oct-17 04:00N 62°14' W 007°48'7 9.4
2017-Oct-17 03:14N 62°19' W 007°36'2 8.6
2017-Oct-17 03:00N 62°20' W 007°33'1 1.0
2017-Oct-17 01:55N 62°21' W 007°31'1 1.9
2017-Oct-17 01:30N 62°20' W 007°32'1 2.0
2017-Oct-17 01:00N 62°19' W 007°33'0 0.9
2017-Oct-17 00:30N 62°19' W 007°33'1 2.0
2017-Oct-16 23:56N 62°18' W 007°35'1 0.5
2017-Oct-16 22:41N 62°19' W 007°34'1 3.5
2017-Oct-16 22:30N 62°19' W 007°33'2 0.6
2017-Oct-16 18:49N 62°21' W 007°30'0 0.1
2017-Oct-16 15:34N 62°21' W 007°30'0 1.3
2017-Oct-16 15:23N 62°21' W 007°30'0 0.1
2017-Oct-16 12:03N 62°21' W 007°30'0 2.7
2017-Oct-16 12:00N 62°21' W 007°31'1 2.7
2017-Oct-16 11:31N 62°20' W 007°32'1 2.8
2017-Oct-16 11:00N 62°19' W 007°34'5 6.7
2017-Oct-16 10:20N 62°15' W 007°40'3 8.4
2017-Oct-16 10:00N 62°13' W 007°44'5 8.7
2017-Oct-16 09:27N 62°09' W 007°50'14 1.3
2017-Oct-15 22:47N 61°56' W 007°57'6 8.5
2017-Oct-15 22:07N 61°55' W 007°45'1 8.4
2017-Oct-15 22:00N 61°55' W 007°43'4 8.2
2017-Oct-15 21:31N 61°55' W 007°34'4 8.1
2017-Oct-15 21:01N 61°54' W 007°26'3 6.9
2017-Oct-15 20:30N 61°54' W 007°18'1 2.2
2017-Oct-15 20:00N 61°53' W 007°19'2 3.1
2017-Oct-15 19:30N 61°51' W 007°18'2 4.5
2017-Oct-15 19:00N 61°49' W 007°16'4 7.8
2017-Oct-15 18:29N 61°46' W 007°10'4 7.3
2017-Oct-15 17:58N 61°44' W 007°04'1 1.6
2017-Oct-15 17:25N 61°43' W 007°04'1 2.3
2017-Oct-15 17:00N 61°44' W 007°03'0 0.7
2017-Oct-15 16:22N 61°44' W 007°04'1 2.3
2017-Oct-15 16:00N 61°44' W 007°05'0 0.0
2017-Oct-15 15:22N 61°44' W 007°05'3 4.2
2017-Oct-15 14:41N 61°46' W 007°08'2 2.8
2017-Oct-15 14:00N 61°48' W 007°10'1 1.8
2017-Oct-15 13:14N 61°46' W 007°09'0 0.4
2017-Oct-15 12:59N 61°46' W 007°09'0 0.6
2017-Oct-15 12:30N 61°46' W 007°08'3 3.3
2017-Oct-15 11:32N 61°44' W 007°05'0 3.6
2017-Oct-15 11:30N 61°44' W 007°05'3 1.8
2017-Oct-15 10:01N 61°46' W 007°08'0 4.0
2017-Oct-15 09:56N 61°46' W 007°08'2 2.7
2017-Oct-15 09:21N 61°45' W 007°07'2 3.2
2017-Oct-15 08:40N 61°43' W 007°05'0 0.7
2017-Oct-15 08:29N 61°43' W 007°05'2 3.0
2017-Oct-15 07:40N 61°45' W 007°07'0 0.7
2017-Oct-15 07:22N 61°45' W 007°07'1 2.4
2017-Oct-15 06:59N 61°44' W 007°06'1 2.9
2017-Oct-15 06:29N 61°43' W 007°04'4 5.5
2017-Oct-15 05:47N 61°43' W 006°56'3 6.1
2017-Oct-15 05:20N 61°43' W 006°50'2 6.2
2017-Oct-15 05:01N 61°43' W 006°46'3 5.4
2017-Oct-15 04:25N 61°44' W 006°39'1 3.4
2017-Oct-15 04:00N 61°43' W 006°36'1 2.9
2017-Oct-15 03:30N 61°43' W 006°34'1 2.2
2017-Oct-15 03:00N 61°42' W 006°31'1 2.8
2017-Oct-15 02:31N 61°44' W 006°31'1 3.0
2017-Oct-15 02:00N 61°45' W 006°31'  

Dump ship's entire track history